Time;durP1;ratioP1;P1;durP2;ratioP2;P2;SDS_P1;SDS_P2;PMS_P1;PMS_P2;Temp;Humidity;BMP_temperature;BMP_pressure;BME280_temperature;BME280_humidity;BME280_pressure;Samples;Min_cycle;Max_cycle;Signal;HPM_P1;HPM_P2
2021/12/05 00:17:50;;;;;;;5.78;1.40;;;;;;;2.71;92.28;94831.84;5061619;28;20056;-80
2021/12/05 00:23:14;;;;;;;4.25;1.20;;;;;;;2.64;94.11;94846.72;5060212;28;20048;-80
2021/12/05 00:25:44;;;;;;;3.88;1.17;;;;;;;2.56;94.59;94857.41;5061590;28;20051;-80
2021/12/05 01:00:35;;;;;;;;;;;;;;;2.05;100.00;94841.22;5058215;28;20217;-78
2021/12/05 01:03:18;;;;;;;3.90;1.20;;;;;;;2.15;100.00;94845.09;5058051;28;19956;-78
2021/12/05 01:08:58;;;;;;;5.28;1.50;;;;;;;1.97;100.00;94854.47;5060188;28;20073;-78
2021/12/05 01:16:28;;;;;;;7.28;1.80;;;;;;;2.03;100.00;94873.56;5061400;28;20055;-79
2021/12/05 01:18:54;;;;;;;7.30;2.33;;;;;;;1.85;100.00;94874.34;5057854;28;20049;-78
2021/12/05 01:21:22;;;;;;;5.18;1.35;;;;;;;1.83;100.00;94871.97;5056566;28;20067;-78
2021/12/05 01:24:00;;;;;;;5.38;1.50;;;;;;;1.76;100.00;94879.00;5056602;28;20064;-78
2021/12/05 01:26:45;;;;;;;7.43;1.98;;;;;;;1.75;100.00;94877.41;5054549;28;20045;-78
2021/12/05 01:29:30;;;;;;;5.75;1.60;;;;;;;1.77;100.00;94874.59;5055887;28;20142;-78
2021/12/05 01:37:23;;;;;;;5.32;1.33;;;;;;;1.76;98.21;94875.59;5054981;28;20081;-78
2021/12/05 01:40:14;;;;;;;8.25;1.63;;;;;;;1.81;97.88;94875.75;5055703;28;20110;-78
2021/12/05 01:56:58;;;;;;;5.63;1.60;;;;;;;1.70;100.00;94882.44;5058373;28;20060;-78
2021/12/05 01:59:40;;;;;;;6.68;2.00;;;;;;;1.69;100.00;94878.25;5055596;28;20041;-78
2021/12/05 02:42:36;;;;;;;3.20;1.20;;;;;;;1.47;99.04;94827.81;5053998;28;20114;-79
2021/12/05 02:45:06;;;;;;;3.67;1.40;;;;;;;1.44;99.48;94836.81;5054762;28;20056;-78
2021/12/05 02:47:34;;;;;;;4.03;1.55;;;;;;;1.47;99.26;94833.00;5054077;28;20049;-77
2021/12/05 02:50:01;;;;;;;4.63;1.57;;;;;;;1.55;99.36;94830.13;5053497;28;20041;-78
2021/12/05 02:52:32;;;;;;;4.40;1.37;;;;;;;1.46;98.94;94821.06;5055607;28;20116;-78
2021/12/05 02:55:05;;;;;;;2.70;1.13;;;;;;;1.39;99.26;94815.91;5055490;28;20488;-79
2021/12/05 03:00:13;;;;;;;5.97;1.42;;;;;;;1.47;99.73;94827.81;5056138;28;20047;-78
2021/12/05 03:02:42;;;;;;;5.07;1.55;;;;;;;1.48;99.63;94824.22;5053643;28;20538;-78
2021/12/05 03:05:12;;;;;;;5.50;1.55;;;;;;;1.52;100.00;94822.78;5056346;28;20228;-78
2021/12/05 03:07:46;;;;;;;4.75;1.65;;;;;;;1.46;100.00;94814.06;5057433;28;20104;-78
2021/12/05 03:10:16;;;;;;;4.72;1.50;;;;;;;1.45;99.86;94815.06;5055545;28;20408;-78
2021/12/05 03:12:43;;;;;;;6.72;1.70;;;;;;;1.50;100.00;94817.00;5061281;28;20472;-78
2021/12/05 03:15:14;;;;;;;6.45;1.52;;;;;;;1.50;100.00;94817.00;5058704;28;20041;-78
2021/12/05 03:17:40;;;;;;;5.07;1.58;;;;;;;1.46;100.00;94816.66;5057593;28;20045;-78
2021/12/05 03:20:07;;;;;;;4.47;1.48;;;;;;;1.50;100.00;94817.81;5054277;28;20128;-77
2021/12/05 03:22:33;;;;;;;5.65;1.70;;;;;;;1.54;99.70;94818.97;5054611;28;20049;-79
2021/12/05 03:25:00;;;;;;;7.53;1.85;;;;;;;1.56;99.68;94822.16;5062952;28;20047;-78
2021/12/05 03:27:31;;;;;;;5.85;1.60;;;;;;;1.53;100.00;94832.16;5053627;28;20063;-77
2021/12/05 03:29:57;;;;;;;4.50;1.70;;;;;;;1.61;99.87;94829.28;5059745;28;20137;-77
2021/12/05 03:32:25;;;;;;;6.32;2.03;;;;;;;1.64;100.00;94822.88;5057985;28;20051;-77
2021/12/05 03:34:50;;;;;;;6.13;1.92;;;;;;;1.65;99.81;94824.47;5056428;28;20045;-80
2021/12/05 03:37:19;;;;;;;6.45;1.92;;;;;;;1.70;99.80;94819.44;5055587;28;20163;-79
2021/12/05 03:39:44;;;;;;;5.50;1.77;;;;;;;1.61;99.50;94820.72;5054981;28;20099;-79
2021/12/05 03:42:11;;;;;;;6.50;1.90;;;;;;;1.70;98.88;94822.03;5054737;28;20037;-79
2021/12/05 03:44:38;;;;;;;6.90;2.08;;;;;;;1.66;99.54;94815.69;5054912;28;20056;-79
2021/12/05 03:47:07;;;;;;;4.30;1.67;;;;;;;1.70;98.90;94817.63;5056351;28;20068;-79
2021/12/05 03:49:35;;;;;;;5.97;2.13;;;;;;;1.73;99.06;94817.22;5055435;28;20041;-79
2021/12/05 03:52:05;;;;;;;7.85;2.13;;;;;;;1.62;98.54;94814.53;5056624;28;20113;-79
2021/12/05 03:54:34;;;;;;;5.80;1.85;;;;;;;1.65;99.27;94820.06;5054075;28;20370;-79
2021/12/05 03:57:00;;;;;;;;;;;;;;;1.59;99.03;94810.56;5055530;28;20052;-79
2021/12/05 03:59:28;;;;;;;7.55;2.13;;;;;;;1.67;99.00;94818.06;5056682;28;19991;-79
2021/12/05 04:01:54;;;;;;;5.93;1.83;;;;;;;1.58;98.19;94808.97;5056821;28;20045;-79
2021/12/05 04:04:20;;;;;;;7.72;2.28;;;;;;;1.59;98.67;94810.56;5058192;28;20041;-79
2021/12/05 04:06:46;;;;;;;6.13;1.95;;;;;;;1.69;98.38;94816.06;5075491;28;20041;-78
2021/12/05 04:09:13;;;;;;;7.10;2.25;;;;;;;1.65;98.01;94814.09;5071334;28;20154;-79
2021/12/05 04:11:44;;;;;;;6.18;2.25;;;;;;;1.55;98.71;94812.78;5057659;28;20064;-78
2021/12/05 04:14:12;;;;;;;6.75;2.25;;;;;;;1.55;98.25;94815.38;5057709;28;20048;-79
2021/12/05 04:16:41;;;;;;;;;;;;;;;1.62;98.41;94815.34;5057866;28;20120;-77
2021/12/05 04:19:07;;;;;;;6.32;1.98;;;;;;;1.64;98.04;94815.09;5057395;28;20376;-77
2021/12/05 04:21:36;;;;;;;5.32;1.95;;;;;;;1.74;98.49;94828.38;5055816;28;20535;-77
2021/12/05 04:24:03;;;;;;;6.72;2.15;;;;;;;1.70;98.51;94829.81;5056215;28;20128;-76
2021/12/05 04:26:29;;;;;;;6.38;1.80;;;;;;;1.57;98.70;94822.97;5056780;28;20045;-76
2021/12/05 04:28:55;;;;;;;7.82;1.80;;;;;;;1.55;98.76;94824.94;5072156;28;20040;-78
2021/12/05 04:31:23;;;;;;;6.50;2.20;;;;;;;1.64;98.70;94826.28;5070361;28;20033;-76
2021/12/05 04:33:53;;;;;;;6.93;2.03;;;;;;;1.62;98.59;94827.50;5070031;28;20077;-77
2021/12/05 04:36:19;;;;;;;6.10;1.85;;;;;;;1.60;98.48;94827.69;5071045;28;20041;-76
2021/12/05 04:38:48;;;;;;;6.22;2.13;;;;;;;1.62;98.60;94825.69;5064585;28;20115;-77
2021/12/05 04:41:14;;;;;;;7.55;1.92;;;;;;;1.57;97.89;94818.56;5060943;28;20051;-78
2021/12/05 04:43:41;;;;;;;6.95;1.70;;;;;;;1.56;97.73;94823.94;5062310;28;20072;-78
2021/12/05 04:46:09;;;;;;;8.35;1.88;;;;;;;1.61;98.31;94823.31;5061093;28;20044;-77
2021/12/05 04:48:35;;;;;;;7.18;1.80;;;;;;;1.64;98.12;94821.09;5057113;28;20530;-77
2021/12/05 04:51:03;;;;;;;6.40;1.85;;;;;;;1.69;97.92;94826.41;5057178;28;20045;-78
2021/12/05 04:53:29;;;;;;;6.28;1.85;;;;;;;1.64;97.91;94823.69;5055560;28;20034;-77
2021/12/05 04:55:56;;;;;;;6.75;2.00;;;;;;;1.65;98.59;94829.66;5058804;28;20045;-79
2021/12/05 04:58:22;;;;;;;8.57;2.10;;;;;;;1.73;97.81;94830.19;5061460;28;20041;-78
2021/12/05 05:00:48;;;;;;;6.70;1.90;;;;;;;1.66;98.09;94829.44;5058290;28;20428;-77
2021/12/05 05:03:14;;;;;;;9.35;2.20;;;;;;;1.68;97.81;94831.81;5055209;28;20040;-77
2021/12/05 05:05:47;;;;;;;6.53;1.90;;;;;;;1.74;97.55;94826.56;5055625;28;20041;-77
2021/12/05 05:08:14;;;;;;;5.88;1.88;;;;;;;1.60;98.84;94825.09;5055769;28;20045;-78
2021/12/05 05:10:40;;;;;;;6.07;1.65;;;;;;;1.48;98.17;94819.03;5055495;28;20051;-76
2021/12/05 05:13:06;;;;;;;13.80;2.35;;;;;;;1.69;98.53;94826.41;5057183;28;20036;-77
2021/12/05 05:15:31;;;;;;;5.65;1.85;;;;;;;1.61;98.51;94826.69;5055328;28;20044;-77
2021/12/05 05:17:59;;;;;;;6.35;1.92;;;;;;;1.66;98.20;94821.66;5055392;28;20384;-77
2021/12/05 05:44:34;;;;;;;7.75;2.20;;;;;;;1.51;98.84;94808.25;5076908;22;20051;-78
2021/12/05 05:49:57;;;;;;;6.68;2.03;;;;;;;1.42;98.69;94799.16;5059454;28;20041;-77
2021/12/05 05:52:22;;;;;;;6.75;1.90;;;;;;;1.48;98.77;94808.69;5056761;28;20041;-79
2021/12/05 05:54:50;;;;;;;7.65;1.83;;;;;;;1.49;99.16;94811.03;5052990;28;20071;-78
2021/12/05 05:57:27;;;;;;;8.02;1.77;;;;;;;1.51;98.59;94800.50;5047014;28;20448;-78
2021/12/05 06:00:06;;;;;;;7.65;2.00;;;;;;;1.57;98.76;94812.59;5043009;28;20041;-78
2021/12/05 06:05:18;;;;;;;6.78;1.58;;;;;;;1.60;98.65;94812.16;5037569;28;20108;-77
2021/12/05 06:07:45;;;;;;;7.72;1.90;;;;;;;1.61;98.40;94807.75;5039507;28;20087;-78
2021/12/05 06:10:12;;;;;;;5.93;1.80;;;;;;;1.54;98.66;94813.78;5038064;28;20045;-77
2021/12/05 06:12:40;;;;;;;7.25;1.70;;;;;;;1.62;97.54;94802.38;5039767;28;20270;-78
2021/12/05 06:15:08;;;;;;;6.82;1.85;;;;;;;1.58;97.98;94814.16;5038365;28;20112;-78
2021/12/05 06:17:36;;;;;;;8.65;2.15;;;;;;;1.57;98.11;94808.19;5043779;28;20090;-78
2021/12/05 06:20:06;;;;;;;5.43;1.52;;;;;;;1.57;98.07;94810.00;5036460;28;20506;-77
2021/12/05 06:22:34;;;;;;;7.38;1.85;;;;;;;1.62;98.27;94804.97;5042149;28;20045;-78
2021/12/05 06:25:00;;;;;;;6.32;1.65;;;;;;;1.62;98.36;94812.75;5046003;28;20215;-77
2021/12/05 06:27:26;;;;;;;7.85;1.88;;;;;;;1.73;97.66;94816.44;5049777;28;20048;-77
2021/12/05 06:30:03;;;;;;;6.18;1.58;;;;;;;1.66;98.44;94815.69;5036880;28;20042;-78
2021/12/05 06:38:30;;;;;;;8.40;2.22;;;;;;;1.65;98.31;94801.94;5035520;28;20056;-77
2021/12/05 06:46:26;;;;;;;8.60;2.20;;;;;;;1.67;97.82;94820.66;5051962;28;20041;-80
2021/12/05 06:48:49;;;;;;;5.65;1.75;;;;;;;1.69;97.64;94830.81;5047615;28;20048;-83
2021/12/05 06:51:18;;;;;;;7.35;1.88;;;;;;;1.66;98.16;94826.84;5061810;28;20514;-84
2021/12/05 06:53:43;;;;;;;7.55;2.08;;;;;;;1.68;97.70;94830.03;5046843;28;20041;-83
2021/12/05 06:56:10;;;;;;;7.47;1.92;;;;;;;1.77;97.61;94851.25;5044924;28;20381;-84
2021/12/05 06:58:36;;;;;;;6.80;2.40;;;;;;;1.74;97.91;94847.31;5045719;28;20097;-81
2021/12/05 07:01:09;;;;;;;10.48;2.45;;;;;;;1.72;98.27;94845.94;5037484;28;20064;-79
2021/12/05 07:03:39;;;;;;;7.25;2.05;;;;;;;1.56;98.41;94858.44;5038663;28;20041;-80
2021/12/05 07:06:10;;;;;;;6.88;1.90;;;;;;;1.64;98.32;94859.97;5043545;28;20497;-79
2021/12/05 07:08:38;;;;;;;6.20;2.00;;;;;;;1.69;97.78;94857.53;5038175;28;20053;-79
2021/12/05 07:26:32;;;;;;;6.07;2.00;;;;;;;1.78;97.37;94861.44;5049953;28;20042;-82
2021/12/05 07:42:41;;;;;;;6.35;2.08;;;;;;;1.79;97.24;94867.41;5043016;28;20056;-83
2021/12/05 07:45:14;;;;;;;8.23;1.95;;;;;;;1.80;97.03;94877.56;5042583;28;20486;-82
2021/12/05 07:47:45;;;;;;;6.47;2.20;;;;;;;1.76;96.53;94879.00;5047021;28;20076;-82
2021/12/05 07:50:12;;;;;;;8.18;2.20;;;;;;;1.79;96.62;94872.59;5048417;28;20103;-81
2021/12/05 07:52:44;;;;;;;7.30;2.03;;;;;;;1.83;96.96;94869.38;5046773;28;20044;-83
2021/12/05 07:55:27;;;;;;;6.45;1.60;;;;;;;1.93;96.05;94868.06;5047385;28;20054;-82
2021/12/05 08:00:33;;;;;;;6.18;1.70;;;;;;;1.93;95.90;94868.06;5059888;28;20029;-82
2021/12/05 08:16:47;;;;;;;6.75;2.00;;;;;;;2.04;95.25;94856.97;5076866;28;20039;-84
2021/12/05 08:19:16;;;;;;;8.05;2.10;;;;;;;2.12;95.31;94853.31;5053807;28;20402;-77
2021/12/05 08:21:42;;;;;;;6.57;1.80;;;;;;;2.20;94.16;94858.22;5044046;28;20068;-78
2021/12/05 08:24:07;;;;;;;8.25;2.10;;;;;;;2.24;94.17;94854.19;5050439;28;20084;-77
2021/12/05 08:26:35;;;;;;;7.25;2.00;;;;;;;2.16;94.54;94857.88;5052098;28;20029;-88
2021/12/05 09:23:46;;;;;;;11.80;2.83;;;;;;;2.27;93.19;94846.78;5019999;28;20068;-77
2021/12/05 09:29:39;;;;;;;10.80;2.67;;;;;;;2.54;92.64;94841.28;5017880;28;20072;-76
2021/12/05 10:14:57;;;;;;;9.38;2.88;;;;;;;3.18;87.59;94823.41;5018280;28;20052;-79
2021/12/05 10:36:25;;;;;;;8.40;3.25;;;;;;;3.56;85.49;94816.00;5024208;28;20413;-78
2021/12/05 10:38:55;;;;;;;7.05;2.67;;;;;;;3.39;85.70;94805.47;5021896;28;20058;-77
2021/12/05 10:44:04;;;;;;;8.75;3.08;;;;;;;3.42;85.90;94819.81;5028146;28;20048;-78
2021/12/05 10:46:39;;;;;;;11.35;3.67;;;;;;;3.38;86.53;94808.28;5033194;28;20053;-76
2021/12/05 10:49:10;;;;;;;9.73;3.33;;;;;;;3.50;86.67;94816.91;5011698;28;20094;-77
2021/12/05 10:51:39;;;;;;;7.70;3.20;;;;;;;3.41;86.30;94813.84;5023333;28;20529;-78
2021/12/05 10:54:07;;;;;;;10.05;3.10;;;;;;;3.40;85.53;94811.47;5021665;28;20077;-78
2021/12/05 10:56:35;;;;;;;10.13;3.65;;;;;;;3.42;85.24;94817.22;5020342;28;20041;-78
2021/12/05 10:59:04;;;;;;;8.05;2.80;;;;;;;3.43;84.91;94814.38;5019389;28;20475;-77
2021/12/05 11:01:35;;;;;;;7.00;2.50;;;;;;;3.43;85.11;94814.38;5018279;28;20057;-77
2021/12/05 11:04:04;;;;;;;11.25;2.95;;;;;;;3.42;85.99;94819.81;5019514;28;20045;-77
2021/12/05 11:06:34;;;;;;;10.25;3.28;;;;;;;3.54;84.54;94812.03;5020859;28;20103;-78
2021/12/05 11:09:05;;;;;;;9.45;3.17;;;;;;;3.67;83.72;94823.00;5019338;28;20038;-77
2021/12/05 11:11:31;;;;;;;8.35;3.10;;;;;;;3.71;83.66;94818.13;5009038;28;20083;-77
2021/12/05 11:14:01;;;;;;;7.78;2.75;;;;;;;3.84;83.78;94817.91;5001206;28;20056;-77
2021/12/05 11:16:35;;;;;;;10.00;2.70;;;;;;;3.68;83.62;94808.97;5017843;28;20041;-77
2021/12/05 11:19:01;;;;;;;7.38;2.67;;;;;;;3.58;83.00;94810.56;5018950;28;20100;-77
2021/12/05 11:21:32;;;;;;;6.95;2.45;;;;;;;3.57;83.42;94816.78;5018217;28;20053;-77
2021/12/05 11:24:06;;;;;;;8.35;2.60;;;;;;;3.72;83.48;94804.13;5000079;28;20038;-77
2021/12/05 11:26:33;;;;;;;9.07;2.90;;;;;;;3.63;83.23;94800.28;5000109;28;20082;-77
2021/12/05 11:28:59;;;;;;;11.68;2.97;;;;;;;3.72;83.28;94793.72;5019966;28;20052;-78
2021/12/05 11:31:26;;;;;;;9.23;2.75;;;;;;;3.72;82.77;94804.13;5018531;28;20125;-78
2021/12/05 11:33:56;;;;;;;;;;;;;;;3.60;81.90;94809.31;5019623;28;20096;-76
2021/12/05 11:36:24;;;;;;;9.68;1.90;;;;;;;3.43;82.68;94804.00;5017959;28;20408;-78
2021/12/05 11:38:50;;;;;;;7.53;2.20;;;;;;;3.47;82.84;94811.34;5000334;28;20141;-78
2021/12/05 11:41:20;;;;;;;7.90;1.90;;;;;;;3.48;83.18;94803.31;5021703;28;20056;-77
2021/12/05 11:43:49;;;;;;;6.05;2.05;;;;;;;3.62;82.68;94796.09;5012835;28;20077;-79
2021/12/05 11:46:16;;;;;;;8.43;2.40;;;;;;;3.67;82.84;94801.41;5004664;28;20046;-76
2021/12/05 11:48:47;;;;;;;9.98;1.90;;;;;;;3.82;82.29;94808.72;5020489;28;20050;-78
2021/12/05 11:51:29;;;;;;;6.40;2.17;;;;;;;3.90;82.37;94800.59;5021020;28;20048;-77
2021/12/05 11:53:57;;;;;;;8.23;2.75;;;;;;;4.10;81.07;94810.66;5022992;28;20042;-79
2021/12/05 11:56:38;;;;;;;7.38;2.08;;;;;;;4.04;80.70;94816.78;5020593;28;20057;-78
2021/12/05 11:59:08;;;;;;;6.90;2.20;;;;;;;4.09;78.97;94814.25;5022839;28;20049;-78
2021/12/05 12:01:35;;;;;;;6.35;1.95;;;;;;;4.16;79.53;94814.94;5021610;28;20056;-77
2021/12/05 12:04:01;;;;;;;6.88;2.03;;;;;;;4.39;78.91;94804.44;5021254;28;20084;-78
2021/12/05 12:06:28;;;;;;;7.10;2.00;;;;;;;4.39;78.46;94809.66;5022700;28;20351;-78
2021/12/05 12:08:57;;;;;;;9.52;2.30;;;;;;;4.24;78.66;94801.53;5023478;28;20097;-78
2021/12/05 12:11:24;;;;;;;;;;;;;;;4.52;78.90;94800.00;5004254;28;20046;-78
2021/12/05 12:13:51;;;;;;;6.22;1.85;;;;;;;4.68;77.81;94804.44;5022332;28;19921;-78
2021/12/05 12:16:17;;;;;;;8.18;2.50;;;;;;;4.77;77.64;94797.84;5001085;28;20038;-78
2021/12/05 12:18:47;;;;;;;7.07;2.33;;;;;;;4.64;77.20;94803.38;5021134;28;20053;-79
2021/12/05 12:21:18;;;;;;;5.82;1.88;;;;;;;4.58;77.24;94801.69;5025093;28;20045;-78
2021/12/05 12:23:46;;;;;;;5.78;1.75;;;;;;;4.74;76.78;94800.94;5021951;28;20031;-79
2021/12/05 12:26:15;;;;;;;;;;;;;;;4.87;76.19;94805.84;5000923;28;20037;-78
2021/12/05 12:28:41;;;;;;;5.50;1.67;;;;;;;4.94;76.32;94805.69;5018193;28;19983;-79
2021/12/05 12:31:12;;;;;;;5.55;1.75;;;;;;;5.09;75.61;94810.38;5017493;28;20413;-77
2021/12/05 12:33:44;;;;;;;5.93;1.80;;;;;;;4.92;75.37;94802.56;5018614;28;20037;-78
2021/12/05 12:36:10;;;;;;;6.10;1.95;;;;;;;4.91;75.43;94801.75;5020109;28;20528;-77
2021/12/05 12:38:39;;;;;;;7.70;1.92;;;;;;;4.84;75.30;94800.31;5022248;28;20049;-78
2021/12/05 12:41:13;;;;;;;5.90;1.58;;;;;;;4.80;74.98;94807.81;5022715;28;20078;-78
2021/12/05 12:43:55;;;;;;;7.47;2.13;;;;;;;4.88;75.07;94807.44;5020660;28;20394;-77
2021/12/05 12:46:29;;;;;;;7.43;1.90;;;;;;;4.99;73.78;94811.00;5021369;28;20052;-77
2021/12/05 12:48:57;;;;;;;5.20;1.70;;;;;;;4.70;74.56;94805.03;5020589;28;20045;-77
2021/12/05 12:51:26;;;;;;;9.18;1.80;;;;;;;4.78;74.80;94796.03;5021804;28;20128;-78
2021/12/05 12:53:55;;;;;;;5.32;1.88;;;;;;;4.79;74.65;94798.44;5022072;28;20038;-78
2021/12/05 12:56:23;;;;;;;4.53;1.52;;;;;;;4.77;74.86;94799.66;5021404;28;20096;-78
2021/12/05 12:58:51;;;;;;;5.43;1.73;;;;;;;4.73;75.54;94809.75;5020729;28;20050;-77
2021/12/05 13:01:36;;;;;;;;;;;;;;;4.78;73.60;94807.25;5023226;28;20046;-77
2021/12/05 13:12:33;;;;;;;12.57;1.90;;;;;;;5.42;72.55;94807.00;5019743;28;20064;-77
2021/12/05 13:15:07;;;;;;;7.97;1.73;;;;;;;5.25;71.04;94797.38;5011727;28;20061;-78
2021/12/05 13:17:38;;;;;;;5.13;1.80;;;;;;;5.16;71.99;94808.41;5007762;28;20050;-77
2021/12/05 13:20:05;;;;;;;6.57;1.80;;;;;;;5.39;70.61;94803.06;5008279;28;20046;-78
2021/12/05 13:22:31;;;;;;;4.90;1.40;;;;;;;5.59;69.84;94801.78;5022353;28;20092;-77
2021/12/05 13:25:07;;;;;;;5.82;1.73;;;;;;;5.32;69.71;94807.63;5020961;28;20042;-77
2021/12/05 13:27:36;;;;;;;6.13;1.48;;;;;;;5.40;70.66;94806.47;5003473;28;20120;-79
2021/12/05 13:30:03;;;;;;;5.15;1.50;;;;;;;5.51;70.53;94813.41;5021510;28;20402;-78
2021/12/05 13:32:31;;;;;;;5.78;1.63;;;;;;;5.34;69.60;94808.19;5002121;28;20050;-80
2021/12/05 13:35:04;;;;;;;4.40;1.30;;;;;;;5.46;69.58;94797.69;5020116;28;20133;-77
2021/12/05 13:37:34;;;;;;;5.57;1.50;;;;;;;5.29;69.42;94802.91;5023859;28;20025;-78
2021/12/05 13:40:19;;;;;;;3.45;1.20;;;;;;;5.36;69.74;94808.75;5021039;28;20061;-77
2021/12/05 13:42:51;;;;;;;5.13;1.40;;;;;;;5.40;69.30;94809.84;5002931;28;20064;-78
2021/12/05 13:45:31;;;;;;;4.28;1.00;;;;;;;5.25;69.08;94809.63;5025826;28;20042;-76
2021/12/05 13:48:10;;;;;;;4.60;1.20;;;;;;;5.18;68.73;94801.94;5026893;28;20050;-77
2021/12/05 13:50:42;;;;;;;7.53;1.40;;;;;;;4.91;69.92;94806.97;5022193;28;20046;-79
2021/12/05 13:53:31;;;;;;;4.78;1.23;;;;;;;4.86;69.44;94796.47;5007763;28;20124;-78
2021/12/05 13:56:10;;;;;;;4.47;1.35;;;;;;;4.69;70.21;94796.44;4991001;28;20066;-78
2021/12/05 13:58:41;;;;;;;4.82;1.25;;;;;;;4.55;70.21;94815.94;5005173;28;20522;-78
2021/12/05 14:01:12;;;;;;;5.45;1.77;;;;;;;4.48;70.33;94813.50;5022422;28;20053;-77
2021/12/05 14:03:56;;;;;;;6.72;1.60;;;;;;;4.34;70.62;94816.56;5020892;28;20482;-78
2021/12/05 14:06:28;;;;;;;3.95;1.20;;;;;;;4.25;72.72;94821.38;5018708;28;20383;-78
2021/12/05 14:08:58;;;;;;;5.13;1.65;;;;;;;4.30;73.22;94816.25;5018349;28;20042;-78
2021/12/05 14:11:25;;;;;;;4.32;1.50;;;;;;;4.08;72.83;94812.66;5019417;28;20042;-78
2021/12/05 14:13:52;;;;;;;4.55;1.48;;;;;;;4.02;73.71;94818.78;5018427;28;20049;-78
2021/12/05 14:16:20;;;;;;;4.20;1.30;;;;;;;4.03;74.77;94822.97;5019325;28;20050;-78
2021/12/05 14:18:45;;;;;;;4.88;1.45;;;;;;;3.93;75.35;94813.94;5023727;28;20045;-78
2021/12/05 14:21:13;;;;;;;7.25;1.92;;;;;;;3.87;76.29;94825.25;5020817;28;20053;-78
2021/12/05 14:23:42;;;;;;;4.55;1.75;;;;;;;3.85;76.52;94819.47;5019942;28;20049;-77
2021/12/05 14:26:14;;;;;;;6.72;2.00;;;;;;;3.79;76.22;94830.00;5001234;28;20045;-78
2021/12/05 14:28:39;;;;;;;8.15;2.30;;;;;;;3.76;77.20;94830.44;5021498;28;20215;-78
2021/12/05 14:31:09;;;;;;;6.93;1.65;;;;;;;3.76;76.18;94826.03;5020287;28;20046;-77
2021/12/05 14:33:47;;;;;;;4.40;1.38;;;;;;;3.72;76.01;94822.34;5001451;28;20073;-78
2021/12/05 14:36:23;;;;;;;6.95;1.77;;;;;;;3.68;76.59;94826.41;5018862;28;20050;-78
2021/12/05 14:39:05;;;;;;;6.10;1.80;;;;;;;3.77;76.38;94830.25;5018735;28;20042;-78
2021/12/05 14:41:32;;;;;;;6.78;2.08;;;;;;;3.65;76.12;94830.22;5021186;28;20052;-79
2021/12/05 14:43:58;;;;;;;9.65;2.50;;;;;;;3.57;76.36;94835.00;5018831;28;20053;-78
2021/12/05 14:46:28;;;;;;;7.47;2.40;;;;;;;3.60;76.43;94832.72;5036577;23;20053;-80
2021/12/05 14:48:55;;;;;;;6.70;1.80;;;;;;;3.68;76.32;94844.59;5040021;28;20571;-78
2021/12/05 14:51:31;;;;;;;8.70;1.65;;;;;;;3.53;76.42;94852.03;5040599;28;20072;-78
2021/12/05 14:53:57;;;;;;;7.00;1.73;;;;;;;3.54;77.46;94851.81;5043049;28;20096;-81
2021/12/05 14:56:27;;;;;;;5.88;1.58;;;;;;;3.54;77.46;94844.00;5055191;28;20057;-80
2021/12/05 14:59:01;;;;;;;7.13;1.85;;;;;;;3.63;77.20;94844.47;5055446;28;20029;-80
2021/12/05 15:01:32;;;;;;;6.18;1.90;;;;;;;3.79;76.65;94851.59;5055887;28;20105;-80
2021/12/05 15:03:59;;;;;;;6.38;1.73;;;;;;;3.75;76.68;94850.47;5053078;28;20112;-79
2021/12/05 15:06:34;;;;;;;4.22;1.50;;;;;;;3.74;76.50;94850.72;5041103;28;20450;-78
2021/12/05 15:09:00;;;;;;;7.00;1.70;;;;;;;3.68;76.29;94855.00;5038178;28;20147;-79
2021/12/05 15:11:28;;;;;;;5.82;1.95;;;;;;;3.73;76.61;94849.91;5038834;28;20049;-79
2021/12/05 15:14:02;;;;;;;7.20;2.10;;;;;;;3.84;76.34;94864.72;5039519;28;20064;-79
2021/12/05 15:16:32;;;;;;;6.20;1.83;;;;;;;3.80;76.23;94862.81;5038667;28;20095;-81
2021/12/05 15:18:58;;;;;;;6.28;1.80;;;;;;;3.75;77.61;94868.69;5048136;28;20060;-80
2021/12/05 15:21:24;;;;;;;7.72;2.08;;;;;;;3.72;77.74;94869.16;5042558;28;20086;-81
2021/12/05 15:23:52;;;;;;;9.18;2.72;;;;;;;3.73;76.85;94870.72;5021548;28;20200;-79
2021/12/05 15:26:17;;;;;;;;;;;;;;;3.75;77.07;94871.28;5037185;28;20383;-79
2021/12/05 15:28:43;;;;;;;7.32;2.13;;;;;;;3.85;76.47;94871.50;5049250;28;19909;-78
2021/12/05 15:31:10;;;;;;;9.45;3.08;;;;;;;3.81;77.07;94878.19;5040083;28;20103;-79
2021/12/05 15:33:37;;;;;;;14.93;5.35;;;;;;;3.72;77.40;94879.53;5036322;28;20089;-78
2021/12/05 15:36:04;;;;;;;10.32;4.03;;;;;;;3.78;76.76;94886.44;5035194;28;20064;-78
2021/12/05 15:38:33;;;;;;;9.70;3.17;;;;;;;3.77;76.98;94879.66;5038377;28;20041;-78
2021/12/05 15:41:03;;;;;;;13.98;6.43;;;;;;;3.70;77.01;94884.16;5036102;28;20045;-80
2021/12/05 15:43:31;;;;;;;11.73;5.13;;;;;;;3.72;76.88;94897.75;5037498;28;20460;-78
2021/12/05 15:45:58;;;;;;;8.88;3.15;;;;;;;3.61;77.41;94890.72;5038888;28;20075;-77
2021/12/05 15:48:26;;;;;;;9.35;4.57;;;;;;;3.65;77.80;94884.03;5035618;28;20417;-77
2021/12/05 15:50:56;;;;;;;8.55;3.45;;;;;;;3.70;77.76;94889.38;5035777;28;20179;-79
2021/12/05 15:53:25;;;;;;;11.13;5.13;;;;;;;3.71;77.41;94890.94;5034826;28;20045;-79
2021/12/05 15:55:57;;;;;;;10.05;4.88;;;;;;;3.61;77.96;94896.72;5035503;28;20050;-78
2021/12/05 15:58:31;;;;;;;13.52;7.00;;;;;;;3.68;77.71;94899.22;5035410;28;20049;-79
2021/12/05 16:00:59;;;;;;;16.35;6.18;;;;;;;3.67;77.88;94901.03;5034702;28;20049;-79
2021/12/05 16:03:27;;;;;;;12.43;5.78;;;;;;;3.66;77.78;94909.84;5039889;28;20038;-78
2021/12/05 16:05:56;;;;;;;;;;;;;;;3.68;77.71;94907.00;5050045;28;20056;-79
2021/12/05 16:08:24;;;;;;;12.85;5.57;;;;;;;3.66;77.88;94915.03;5037403;28;20356;-78
2021/12/05 16:10:50;;;;;;;;;;;;;;;3.64;77.98;94916.25;5041712;28;20116;-78
2021/12/05 16:13:21;;;;;;;10.50;3.53;;;;;;;3.62;78.27;94913.09;5037929;28;19971;-80
2021/12/05 16:15:50;;;;;;;9.48;3.30;;;;;;;3.55;78.71;94918.41;5040388;28;20409;-78
2021/12/05 16:18:17;;;;;;;9.80;3.35;;;;;;;3.59;78.14;94918.75;5039970;28;20046;-78
2021/12/05 16:20:45;;;;;;;7.77;3.13;;;;;;;3.65;78.00;94907.44;5040040;28;20053;-78
2021/12/05 16:23:19;;;;;;;8.98;2.85;;;;;;;3.65;77.86;94915.25;5039913;28;20053;-78
2021/12/05 16:25:58;;;;;;;7.57;2.45;;;;;;;3.71;78.38;94916.94;5050005;28;20036;-78
2021/12/05 16:28:26;;;;;;;8.20;2.58;;;;;;;3.60;78.78;94920.31;5048649;28;20068;-78
2021/12/05 16:30:57;;;;;;;7.55;2.58;;;;;;;3.51;79.71;94921.69;5044104;28;20060;-79
2021/12/05 16:33:23;;;;;;;9.05;2.72;;;;;;;3.36;80.61;94920.28;5040078;28;20044;-78
2021/12/05 16:35:51;;;;;;;7.03;2.17;;;;;;;3.34;81.41;94922.31;5041625;28;20053;-78
2021/12/05 16:38:24;;;;;;;9.77;2.28;;;;;;;3.14;83.09;94932.19;5044579;28;20042;-79
2021/12/05 16:41:05;;;;;;;6.55;2.08;;;;;;;3.11;83.53;94933.41;5042325;28;20063;-79
2021/12/05 16:43:33;;;;;;;6.40;2.08;;;;;;;3.14;84.17;94934.78;5041807;28;20045;-80
2021/12/05 16:46:09;;;;;;;5.97;1.77;;;;;;;3.23;83.11;94930.06;5043537;28;20211;-79
2021/12/05 16:48:36;;;;;;;5.50;1.60;;;;;;;3.07;83.09;94939.28;5039991;28;20042;-77
2021/12/05 16:51:29;;;;;;;8.35;2.30;;;;;;;3.18;83.46;94941.13;5042011;28;20042;-78
2021/12/05 16:54:02;;;;;;;6.97;2.08;;;;;;;3.11;83.52;94943.00;5022617;28;20124;-80
2021/12/05 16:56:56;;;;;;;6.35;1.95;;;;;;;2.85;84.05;94947.53;5053578;28;20045;-79
2021/12/05 16:59:27;;;;;;;7.80;2.10;;;;;;;2.92;83.90;94950.06;5053715;28;20041;-78
2021/12/05 17:02:15;;;;;;;7.95;2.25;;;;;;;2.74;84.65;94943.03;5053930;28;20053;-80
2021/12/05 17:04:44;;;;;;;;;;;;;;;2.87;85.19;94952.50;5050007;28;20042;-79
2021/12/05 17:07:14;;;;;;;5.53;1.70;;;;;;;2.85;84.52;94951.91;5038714;28;19921;-78
2021/12/05 17:09:42;;;;;;;7.70;2.08;;;;;;;2.75;84.85;94951.66;5035949;28;20041;-78
2021/12/05 17:12:27;;;;;;;8.98;2.10;;;;;;;2.70;85.28;94954.91;5038312;28;20045;-78
2021/12/05 17:15:10;;;;;;;6.00;1.85;;;;;;;2.96;84.75;94960.78;5037362;28;20083;-78
2021/12/05 17:17:35;;;;;;;6.25;1.38;;;;;;;2.95;83.96;94961.78;5039047;28;20044;-79
2021/12/05 17:20:17;;;;;;;7.32;2.55;;;;;;;2.82;84.28;94960.16;5043143;28;20103;-79
2021/12/05 17:22:50;;;;;;;9.48;1.80;;;;;;;2.78;84.92;94964.97;5053678;28;20038;-78
2021/12/05 17:25:30;;;;;;;6.22;1.60;;;;;;;2.74;85.04;94963.81;5045352;28;20049;-78
2021/12/05 17:27:56;;;;;;;5.32;1.70;;;;;;;2.72;84.35;94965.84;5040543;28;20045;-78
2021/12/05 17:30:22;;;;;;;6.47;1.70;;;;;;;2.71;84.56;94969.47;5042541;28;20061;-78
2021/12/05 17:32:48;;;;;;;5.68;1.63;;;;;;;2.64;85.16;94966.16;5043332;28;20045;-78
2021/12/05 17:35:13;;;;;;;6.78;2.20;;;;;;;2.60;84.82;94968.38;5036917;28;20469;-77
2021/12/05 17:37:46;;;;;;;7.38;2.20;;;;;;;2.59;84.70;94966.81;5038404;28;20049;-78